Time;durP1;ratioP1;P1;durP2;ratioP2;P2;SDS_P1;SDS_P2;PMS_P1;PMS_P2;Temp;Humidity;BMP_temperature;BMP_pressure;BME280_temperature;BME280_humidity;BME280_pressure;Samples;Min_cycle;Max_cycle;Signal;HPM_P1;HPM_P2
2022/09/21 00:33:42;;;;;;;14.43;3.78;;;10.40;99.90;;;;;;4960549;28;20034;-86
2022/09/21 02:13:58;;;;;;;5.18;3.70;;;9.80;99.90;;;;;;4960825;28;20030;-88
2022/09/21 02:17:07;;;;;;;;;;;;;;;;;;;;;
2022/09/21 04:19:26;;;;;;;5.53;3.30;;;9.90;99.90;;;;;;4966981;28;20471;-87
2022/09/21 04:50:48;;;;;;;8.02;4.18;;;10.00;99.90;;;;;;4927547;29;20031;-88
2022/09/21 04:53:21;;;;;;;11.20;4.22;;;10.00;99.90;;;;;;4925980;29;20036;-86
2022/09/21 04:56:02;;;;;;;8.20;3.90;;;10.00;99.90;;;;;;4940563;28;20487;-86
2022/09/21 04:58:52;;;;;;;9.13;3.75;;;10.00;99.90;;;;;;4979233;28;20214;-86
2022/09/21 05:01:20;;;;;;;10.25;4.25;;;10.00;99.90;;;;;;4972567;28;20065;-87
2022/09/21 05:04:30;;;;;;;10.13;3.80;;;10.10;99.90;;;;;;4974563;28;20370;-87
2022/09/21 05:06:58;;;;;;;10.52;4.00;;;10.10;99.90;;;;;;4915399;29;20071;-86
2022/09/21 05:13:24;;;;;;;13.48;5.93;;;10.10;99.90;;;;;;4893873;29;20096;-89
2022/09/21 05:46:52;;;;;;;10.80;5.38;;;10.40;99.90;;;;;;4904084;29;20031;-86
2022/09/21 05:49:21;;;;;;;17.95;10.02;;;10.40;99.90;;;;;;4906813;29;20466;-84
2022/09/21 05:52:08;;;;;;;15.50;6.82;;;10.50;99.90;;;;;;4903697;29;20561;-84
2022/09/21 05:54:43;;;;;;;16.55;8.18;;;10.60;99.90;;;;;;4900323;29;20036;-85
2022/09/21 05:57:11;;;;;;;22.58;8.45;;;10.70;99.90;;;;;;4937362;29;20087;-85
2022/09/21 05:59:43;;;;;;;26.33;9.95;;;10.70;99.90;;;;;;4962146;28;20027;-84
2022/09/21 06:02:25;;;;;;;16.33;7.25;;;10.80;99.90;;;;;;4979100;28;20383;-83
2022/09/21 06:04:54;;;;;;;16.23;6.97;;;10.80;99.90;;;;;;4960675;28;20494;-83
2022/09/21 06:07:20;;;;;;;10.10;5.95;;;10.80;99.90;;;;;;4969356;28;20032;-82
2022/09/21 06:09:46;;;;;;;15.98;7.25;;;11.00;99.90;;;;;;4956245;28;20038;-82
2022/09/21 06:12:12;;;;;;;20.42;10.30;;;11.20;99.90;;;;;;4962082;28;20022;-82
2022/09/21 06:14:37;;;;;;;17.60;7.30;;;11.50;99.90;;;;;;4961347;28;20491;-81
2022/09/21 06:17:03;;;;;;;22.48;11.63;;;11.60;99.90;;;;;;4977842;28;20035;-85
2022/09/21 06:19:29;;;;;;;25.52;11.70;;;11.80;99.90;;;;;;4968221;28;20121;-83
2022/09/21 06:21:55;;;;;;;15.38;9.50;;;11.90;99.90;;;;;;4962143;28;20097;-83
2022/09/21 06:24:21;;;;;;;15.20;9.52;;;12.00;99.90;;;;;;4980877;28;20086;-83
2022/09/21 06:26:46;;;;;;;21.13;9.60;;;12.10;99.90;;;;;;4961924;28;20465;-85
2022/09/21 06:29:12;;;;;;;14.48;8.32;;;12.20;99.90;;;;;;4961176;28;20031;-83
2022/09/21 06:31:38;;;;;;;10.70;5.82;;;12.20;99.90;;;;;;4967893;28;20038;-82
2022/09/21 06:34:04;;;;;;;9.40;5.18;;;12.20;99.90;;;;;;4962245;28;20066;-83
2022/09/21 06:36:30;;;;;;;17.67;8.32;;;12.20;99.90;;;;;;4982139;28;20030;-84
2022/09/21 06:38:55;;;;;;;14.48;6.97;;;12.10;99.90;;;;;;4974288;28;20030;-82
2022/09/21 06:41:21;;;;;;;18.50;12.02;;;12.10;99.90;;;;;;4973340;28;20363;-83
2022/09/21 06:43:47;;;;;;;29.88;14.65;;;12.20;99.90;;;;;;4973991;28;20031;-84
2022/09/21 06:46:13;;;;;;;32.88;17.77;;;12.10;99.90;;;;;;4974624;28;20113;-81
2022/09/21 06:48:39;;;;;;;23.65;12.65;;;12.00;99.90;;;;;;4975185;28;20033;-81
2022/09/21 06:51:06;;;;;;;17.38;7.43;;;12.00;99.90;;;;;;4974898;28;20027;-81
2022/09/21 06:53:33;;;;;;;23.77;11.77;;;12.10;99.90;;;;;;4974826;28;20415;-83
2022/09/21 06:56:04;;;;;;;16.75;9.45;;;12.10;99.90;;;;;;4973965;28;20528;-83
2022/09/21 06:58:33;;;;;;;22.95;8.90;;;12.10;99.90;;;;;;4973651;28;20054;-82
2022/09/21 07:01:11;;;;;;;20.38;9.93;;;12.20;99.90;;;;;;4974682;28;20597;-82
2022/09/21 07:03:37;;;;;;;8.13;4.93;;;12.20;99.90;;;;;;4973404;28;20023;-82
2022/09/21 07:06:05;;;;;;;11.18;5.40;;;12.20;99.90;;;;;;4974839;28;20023;-81
2022/09/21 07:08:31;;;;;;;17.13;5.60;;;12.20;99.90;;;;;;4974759;28;20489;-83
2022/09/21 07:10:58;;;;;;;33.05;14.85;;;12.20;99.90;;;;;;4973508;28;20097;-83
2022/09/21 07:13:24;;;;;;;27.52;9.30;;;12.20;99.90;;;;;;4974906;28;20031;-83
2022/09/21 07:15:50;;;;;;;19.15;6.93;;;12.20;99.90;;;;;;4974548;28;20031;-81
2022/09/21 07:18:16;;;;;;;18.55;7.00;;;12.00;99.90;;;;;;4974850;28;20114;-81
2022/09/21 07:20:42;;;;;;;12.43;6.18;;;12.10;99.90;;;;;;4975112;28;20023;-82
2022/09/21 07:23:15;;;;;;;12.85;4.88;;;12.20;99.90;;;;;;4973263;28;20023;-82
2022/09/21 07:25:51;;;;;;;9.63;4.38;;;12.30;99.90;;;;;;4973028;28;20023;-81
2022/09/21 07:28:17;;;;;;;6.85;4.28;;;12.40;99.90;;;;;;4974237;28;20162;-82
2022/09/21 07:30:44;;;;;;;9.32;5.10;;;12.30;99.90;;;;;;4973247;28;20494;-82
2022/09/21 07:33:10;;;;;;;11.65;5.45;;;12.50;99.90;;;;;;4973246;28;20027;-81
2022/09/21 07:35:36;;;;;;;17.42;8.07;;;12.40;99.90;;;;;;4974134;28;20049;-80
2022/09/21 07:38:05;;;;;;;21.52;9.73;;;12.50;99.90;;;;;;4974631;28;20106;-81
2022/09/21 07:40:30;;;;;;;27.50;12.80;;;12.50;99.90;;;;;;4973948;28;20418;-81
2022/09/21 07:42:57;;;;;;;16.17;9.57;;;12.50;99.90;;;;;;4972178;28;20454;-82
2022/09/21 07:45:24;;;;;;;17.50;10.15;;;12.50;99.90;;;;;;4974454;28;20027;-81
2022/09/21 07:47:53;;;;;;;7.40;3.88;;;12.60;99.90;;;;;;4977600;28;20069;-84
2022/09/21 07:50:20;;;;;;;8.73;4.75;;;12.70;99.90;;;;;;4978193;28;20355;-82
2022/09/21 07:52:46;;;;;;;12.50;7.53;;;12.80;99.90;;;;;;4977003;28;20023;-84
2022/09/21 07:55:13;;;;;;;19.85;9.02;;;12.90;99.90;;;;;;4978211;28;20031;-84
2022/09/21 08:00:23;;;;;;;24.98;11.70;;;13.10;99.90;;;;;;4977850;28;20398;-82
2022/09/21 08:02:49;;;;;;;16.23;7.63;;;13.20;99.90;;;;;;4976733;28;20031;-83
2022/09/21 08:05:16;;;;;;;21.27;9.90;;;13.20;99.90;;;;;;4977672;28;20027;-84
2022/09/21 08:10:52;;;;;;;16.02;7.85;;;12.80;99.90;;;;;;4976757;28;20029;-85
2022/09/21 08:13:30;;;;;;;23.92;11.25;;;12.70;99.90;;;;;;4976350;28;20477;-87
2022/09/21 08:16:05;;;;;;;23.27;10.30;;;12.70;99.90;;;;;;4974263;28;20478;-87
2022/09/21 08:18:35;;;;;;;33.85;14.43;;;12.80;99.90;;;;;;4964789;28;20121;-85
2022/09/21 08:21:00;;;;;;;15.40;8.32;;;13.00;99.90;;;;;;4969471;28;20035;-85
2022/09/21 08:23:27;;;;;;;12.23;8.30;;;13.10;99.90;;;;;;4959538;28;20106;-85
2022/09/21 08:26:41;;;;;;;24.40;10.00;;;13.30;99.90;;;;;;4979311;28;20031;-86
2022/09/21 08:29:31;;;;;;;14.38;7.93;;;13.10;99.90;;;;;;4938599;28;20486;-85
2022/09/21 08:32:13;;;;;;;17.35;8.88;;;13.00;99.90;;;;;;4964781;28;20051;-86
2022/09/21 08:38:55;;;;;;;12.15;6.65;;;13.00;99.90;;;;;;4898126;29;20088;-87
2022/09/21 08:41:52;;;;;;;20.73;10.90;;;13.00;99.90;;;;;;4906651;29;20144;-85
2022/09/21 08:44:43;;;;;;;14.90;7.53;;;13.10;99.90;;;;;;4916345;29;20111;-86
2022/09/21 08:47:32;;;;;;;11.55;6.38;;;13.10;99.90;;;;;;4917269;29;20119;-84
2022/09/21 08:50:23;;;;;;;17.95;6.88;;;13.00;99.90;;;;;;4858630;29;20041;-85
2022/09/21 08:53:14;;;;;;;15.82;8.52;;;13.00;99.90;;;;;;4861004;29;20037;-85
2022/09/21 08:56:25;;;;;;;10.80;5.93;;;13.10;99.90;;;;;;4860823;29;20501;-86
2022/09/21 08:59:15;;;;;;;10.32;4.60;;;13.20;99.90;;;;;;4860406;29;20085;-86
2022/09/21 09:05:51;;;;;;;11.57;5.78;;;13.10;99.90;;;;;;4868604;29;20081;-83
2022/09/21 09:08:35;;;;;;;14.70;6.97;;;12.90;99.90;;;;;;4860157;29;20048;-86
2022/09/21 09:11:11;;;;;;;21.58;10.88;;;12.80;99.90;;;;;;4842467;29;20046;-82
2022/09/21 09:14:11;;;;;;;18.77;6.35;;;12.80;99.90;;;;;;4844789;29;20038;-83
2022/09/21 09:17:06;;;;;;;10.88;5.32;;;12.80;99.90;;;;;;4878666;29;20120;-82
2022/09/21 09:19:45;;;;;;;9.25;6.40;;;12.80;99.90;;;;;;4879150;29;20037;-86
2022/09/21 09:22:18;;;;;;;13.82;7.10;;;12.70;99.90;;;;;;4879024;29;20134;-84
2022/09/21 09:24:47;;;;;;;17.00;8.73;;;12.50;99.90;;;;;;4890613;29;20049;-85
2022/09/21 09:27:29;;;;;;;26.27;12.20;;;12.50;99.90;;;;;;4930851;29;20040;-84
2022/09/21 09:30:08;;;;;;;32.50;20.25;;;12.40;99.90;;;;;;4971754;28;20478;-85
2022/09/21 09:32:44;;;;;;;30.83;15.75;;;12.40;99.90;;;;;;4971809;28;20032;-84
2022/09/21 09:35:26;;;;;;;26.58;15.43;;;12.50;99.90;;;;;;4971326;28;20134;-84
2022/09/21 09:37:57;;;;;;;19.25;11.07;;;12.50;99.90;;;;;;4956968;29;20038;-84
2022/09/21 09:40:38;;;;;;;23.92;12.77;;;12.30;99.90;;;;;;4956607;29;20038;-84
2022/09/21 09:43:16;;;;;;;14.70;10.30;;;12.40;99.90;;;;;;4956798;29;20054;-86
2022/09/21 09:45:53;;;;;;;20.13;11.90;;;12.50;99.90;;;;;;4971174;28;20035;-84
2022/09/21 09:48:32;;;;;;;21.58;12.80;;;12.50;99.90;;;;;;4951872;29;20045;-84
2022/09/21 09:50:58;;;;;;;20.38;11.02;;;12.50;99.90;;;;;;4938758;29;20418;-86
2022/09/21 09:53:25;;;;;;;18.80;11.57;;;12.50;99.90;;;;;;4954852;28;20481;-84
2022/09/21 09:55:56;;;;;;;15.25;10.70;;;12.60;99.90;;;;;;4955344;28;20096;-86
2022/09/21 09:58:30;;;;;;;24.70;12.30;;;12.60;99.90;;;;;;4980040;28;20035;-84
2022/09/21 10:00:59;;;;;;;12.70;7.53;;;12.60;99.90;;;;;;4968819;28;20023;-85
2022/09/21 10:03:27;;;;;;;11.25;7.97;;;12.60;99.90;;;;;;4965135;28;20059;-84
2022/09/21 10:06:29;;;;;;;16.05;9.25;;;12.60;99.90;;;;;;4971782;28;20090;-85
2022/09/21 10:09:28;;;;;;;13.27;8.00;;;12.50;99.90;;;;;;4945763;29;20027;-85
2022/09/21 10:12:24;;;;;;;14.73;8.90;;;12.50;99.90;;;;;;4956977;28;20035;-84
2022/09/21 10:35:46;;;;;;;16.97;11.10;;;12.10;99.90;;;;;;4944951;29;20586;-84
2022/09/21 11:34:00;;;;;;;20.05;10.70;;;13.80;99.90;;;;;;4939704;29;20111;-87
2022/09/21 11:41:12;;;;;;;9.38;6.47;;;13.60;99.90;;;;;;4938960;29;20066;-83
2022/09/21 12:20:38;;;;;;;23.92;17.40;;;14.70;99.90;;;;;;4920145;29;20080;-86
2022/09/21 12:53:43;;;;;;;17.27;10.20;;;14.80;99.90;;;;;;4919507;29;20032;-87
2022/09/21 13:21:26;;;;;;;13.18;7.80;;;16.60;99.90;;;;;;4936090;29;20051;-86
2022/09/21 13:30:46;;;;;;;12.82;7.18;;;17.10;99.90;;;;;;4937403;29;20535;-87
2022/09/21 13:34:08;;;;;;;11.55;7.88;;;17.40;99.90;;;;;;4952455;29;20027;-86
2022/09/21 13:36:40;;;;;;;8.88;5.95;;;17.90;99.90;;;;;;4896749;29;20211;-86
2022/09/21 13:39:08;;;;;;;10.93;6.47;;;18.20;95.50;;;;;;4896846;29;20032;-86
2022/09/21 14:02:34;;;;;;;51.08;26.40;;;13.80;99.90;;;;;;4893689;29;20051;-83
2022/09/21 14:05:30;;;;;;;19.35;8.52;;;13.40;99.90;;;;;;4896250;29;20123;-82
2022/09/21 15:01:05;;;;;;;22.65;13.88;;;13.80;99.90;;;;;;4955519;29;20037;-85
2022/09/21 15:36:46;;;;;;;37.63;21.55;;;14.10;99.90;;;;;;4936108;29;20068;-86
2022/09/21 15:40:28;;;;;;;31.50;17.38;;;13.90;99.90;;;;;;4936308;29;20462;-85
2022/09/21 15:43:57;;;;;;;24.67;12.77;;;13.90;99.90;;;;;;4856405;29;20135;-85
2022/09/21 15:46:29;;;;;;;24.60;14.77;;;13.80;99.90;;;;;;4821914;29;20046;-87
2022/09/21 15:48:54;;;;;;;;;;;13.70;99.90;;;;;;4822285;29;20046;-86
2022/09/21 15:54:56;;;;;;;23.95;14.35;;;13.80;99.90;;;;;;4821831;29;20046;-85
2022/09/21 15:57:42;;;;;;;36.92;23.10;;;13.70;99.90;;;;;;4821607;29;20038;-84
2022/09/21 16:00:52;;;;;;;48.35;31.08;;;13.70;99.90;;;;;;4821729;29;20464;-84
2022/09/21 16:03:37;;;;;;;31.80;20.75;;;13.60;99.90;;;;;;4785538;30;20039;-86
2022/09/21 16:16:02;;;;;;;27.60;16.48;;;13.50;99.90;;;;;;4807391;29;20104;-88
2022/09/21 16:18:54;;;;;;;29.35;17.00;;;13.40;99.90;;;;;;4822904;29;20057;-87
2022/09/21 16:22:04;;;;;;;54.83;30.70;;;13.40;99.90;;;;;;4829542;29;20035;-86
2022/09/21 16:24:54;;;;;;;56.03;32.78;;;13.30;99.90;;;;;;4845909;29;20195;-86
2022/09/21 16:27:39;;;;;;;49.28;25.58;;;13.20;99.90;;;;;;4899775;29;20037;-88
2022/09/21 16:30:57;;;;;;;35.95;21.35;;;13.10;99.90;;;;;;4898981;29;20119;-86
2022/09/21 16:55:29;;;;;;;32.13;17.85;;;12.40;99.90;;;;;;4802941;29;20198;-86
2022/09/21 17:09:43;;;;;;;40.88;24.83;;;12.10;99.90;;;;;;4798907;29;20100;-87
2022/09/21 17:20:02;;;;;;;35.20;23.73;;;11.90;99.90;;;;;;4785348;29;20059;-88
2022/09/21 17:25:53;;;;;;;18.45;10.20;;;11.90;99.90;;;;;;4805691;29;20458;-85
2022/09/21 17:28:24;;;;;;;18.08;10.45;;;11.70;99.90;;;;;;4865790;29;20539;-87
2022/09/21 17:30:56;;;;;;;17.17;12.10;;;11.70;99.90;;;;;;4899874;29;20134;-87
2022/09/21 17:47:28;;;;;;;29.73;18.50;;;11.60;99.90;;;;;;4878287;29;20112;-88
2022/09/21 17:50:25;;;;;;;38.95;24.70;;;11.50;99.90;;;;;;4862342;29;20166;-86
2022/09/21 22:05:07;;;;;;;22.83;13.50;;;9.60;99.90;;;;;;5069045;28;20056;-88
2022/09/21 22:07:33;;;;;;;22.10;12.05;;;10.00;99.90;;;;;;5067309;28;20075;-88
2022/09/21 22:10:01;;;;;;;19.35;13.07;;;9.80;99.90;;;;;;5069638;28;20029;-88
2022/09/21 22:12:27;;;;;;;22.05;17.63;;;9.70;99.90;;;;;;5068440;28;20017;-88
2022/09/21 22:15:05;;;;;;;22.02;18.75;;;9.60;99.90;;;;;;5068203;28;20431;-86
2022/09/21 22:18:31;;;;;;;30.52;17.38;;;9.50;99.90;;;;;;5051875;28;20371;-86
2022/09/21 22:29:19;;;;;;;;;;;;;;;;;;;;;
2022/09/21 22:39:38;;;;;;;;;;;;;;;;;;;;;
2022/09/21 22:42:19;;;;;;;21.13;13.82;;;9.50;99.90;;;;;;4926817;29;20050;-87
2022/09/21 22:52:06;;;;;;;24.27;16.30;;;9.60;99.90;;;;;;4948633;29;20489;-89
2022/09/21 22:55:00;;;;;;;18.92;10.95;;;9.70;99.90;;;;;;4948310;28;20035;-86
2022/09/21 23:02:13;;;;;;;17.70;11.32;;;9.70;99.90;;;;;;4836073;29;20399;-88
2022/09/21 23:04:39;;;;;;;19.13;11.90;;;9.70;99.90;;;;;;4837401;29;20441;-85
